Time;durP1;ratioP1;P1;durP2;ratioP2;P2;SDS_P1;SDS_P2;PMS_P1;PMS_P2;Temp;Humidity;BMP_temperature;BMP_pressure;BME280_temperature;BME280_humidity;BME280_pressure;Samples;Min_cycle;Max_cycle;Signal;HPM_P1;HPM_P2
2023/02/18 00:00:08;;;;;;;33.30;13.50;;;;;;;-1.08;100.00;101217.08;106236;1291;73482;-82
2023/02/18 00:02:34;;;;;;;36.20;14.10;;;;;;;-1.10;100.00;101214.38;106034;1293;63330;-82
2023/02/18 00:05:00;;;;;;;30.20;12.70;;;;;;;-1.12;100.00;101214.56;105931;1295;58746;-82
2023/02/18 00:07:25;;;;;;;32.60;12.80;;;;;;;-1.13;100.00;101216.79;106054;1293;58859;-82
2023/02/18 00:09:51;;;;;;;32.00;12.80;;;;;;;-1.15;100.00;101217.13;106001;1294;58327;-81
2023/02/18 00:12:16;;;;;;;34.60;14.10;;;;;;;-1.14;100.00;101213.55;106040;1294;58296;-82
2023/02/18 00:14:42;;;;;;;34.20;14.10;;;;;;;-1.14;100.00;101204.87;105803;1293;59562;-82
2023/02/18 00:17:07;;;;;;;38.80;13.90;;;;;;;-1.15;100.00;101190.52;106287;1289;58387;-82
2023/02/18 00:19:33;;;;;;;39.30;13.10;;;;;;;-1.14;100.00;101173.86;106206;1289;58423;-82
2023/02/18 00:21:58;;;;;;;41.20;13.30;;;;;;;-1.19;100.00;101171.35;106250;1290;58343;-82
2023/02/18 00:24:24;;;;;;;31.10;11.80;;;;;;;-1.19;100.00;101167.06;106327;1289;58475;-82
2023/02/18 00:26:51;;;;;;;39.50;13.20;;;;;;;-1.18;100.00;101160.91;106269;1289;72449;-82
2023/02/18 00:29:17;;;;;;;36.90;12.20;;;;;;;-1.20;100.00;101174.01;106269;1290;74281;-82
2023/02/18 00:31:43;;;;;;;33.80;12.30;;;;;;;-1.22;100.00;101167.48;106298;1289;58581;-82
2023/02/18 00:34:10;;;;;;;35.30;12.40;;;;;;;-1.23;100.00;101154.04;106170;1290;59051;-82
2023/02/18 00:36:35;;;;;;;33.80;12.40;;;;;;;-1.26;100.00;101156.20;106291;1289;58297;-82
2023/02/18 00:39:03;;;;;;;29.30;12.40;;;;;;;-1.30;100.00;101160.27;106305;1289;58545;-82
2023/02/18 00:41:29;;;;;;;35.20;13.50;;;;;;;-1.31;100.00;101146.35;106666;1286;58605;-82
2023/02/18 00:43:55;;;;;;;30.30;12.70;;;;;;;-1.31;100.00;101141.60;106548;1286;58424;-81
2023/02/18 00:46:22;;;;;;;28.00;13.30;;;;;;;-1.31;100.00;101131.33;106551;1286;58240;-82
2023/02/18 00:48:48;;;;;;;38.30;13.70;;;;;;;-1.31;100.00;101119.69;106354;1286;58227;-82
2023/02/18 00:51:13;;;;;;;33.00;11.80;;;;;;;-1.31;100.00;101114.23;106791;1286;58311;-82
2023/02/18 00:53:39;;;;;;;36.50;13.20;;;;;;;-1.29;100.00;101106.11;106733;1286;58263;-82
2023/02/18 00:56:05;;;;;;;34.00;11.50;;;;;;;-1.31;100.00;101105.21;106316;1286;59580;-82
2023/02/18 00:58:31;;;;;;;29.50;11.10;;;;;;;-1.31;100.00;101100.48;106803;1286;58669;-82
2023/02/18 01:00:57;;;;;;;26.20;11.00;;;;;;;-1.33;100.00;101098.11;106739;1285;73580;-81
2023/02/18 01:03:23;;;;;;;42.10;16.00;;;;;;;-1.33;100.00;101095.84;106785;1286;58301;-82
2023/02/18 01:05:50;;;;;;;45.40;17.10;;;;;;;-1.33;100.00;101091.70;106486;1286;58224;-82
2023/02/18 01:08:18;;;;;;;39.50;16.00;;;;;;;-1.37;100.00;101089.44;106486;1286;58326;-82
2023/02/18 01:10:46;;;;;;;31.50;13.10;;;;;;;-1.37;100.00;101086.50;106538;1286;60186;-82
2023/02/18 01:13:15;;;;;;;28.40;11.30;;;;;;;-1.38;100.00;101088.55;106735;1285;73550;-82
2023/02/18 01:15:41;;;;;;;35.00;12.50;;;;;;;-1.40;100.00;101088.88;106561;1286;74734;-82
2023/02/18 01:18:08;;;;;;;36.30;11.50;;;;;;;-1.39;100.00;101094.42;106764;1286;73427;-82
2023/02/18 01:20:35;;;;;;;34.20;11.80;;;;;;;-1.37;100.00;101097.23;106720;1286;58184;-82
2023/02/18 01:23:02;;;;;;;24.90;10.30;;;;;;;-1.34;100.00;101094.98;106273;1286;60096;-81
2023/02/18 01:25:27;;;;;;;29.60;12.30;;;;;;;-1.33;100.00;101092.63;106706;1286;58530;-82
2023/02/18 01:27:53;;;;;;;29.60;11.30;;;;;;;-1.33;100.00;101095.73;106591;1286;58410;-82
2023/02/18 01:30:19;;;;;;;35.10;11.80;;;;;;;-1.33;100.00;101095.17;106740;1285;58236;-82
2023/02/18 01:32:45;;;;;;;39.10;11.30;;;;;;;-1.34;100.00;101092.17;106559;1286;58530;-81
2023/02/18 01:35:14;;;;;;;33.70;12.10;;;;;;;-1.39;100.00;101084.99;106540;1286;59099;-82
2023/02/18 01:37:40;;;;;;;28.30;10.20;;;;;;;-1.41;100.00;101082.15;106569;1285;59058;-82
2023/02/18 01:40:06;;;;;;;39.70;11.60;;;;;;;-1.44;100.00;101082.11;106696;1286;58273;-82
2023/02/18 01:42:32;;;;;;;33.70;11.10;;;;;;;-1.44;100.00;101079.88;106744;1286;58252;-82
2023/02/18 01:45:37;;;;;;;32.10;11.90;;;;;;;-1.43;100.00;101080.99;106752;1286;58664;-81
2023/02/18 01:48:10;;;;;;;28.60;11.90;;;;;;;-1.40;100.00;101076.23;106751;1286;59981;-82
2023/02/18 01:50:42;;;;;;;34.60;12.20;;;;;;;-1.39;100.00;101072.46;106741;1286;72541;-81
2023/02/18 01:53:08;;;;;;;34.40;12.20;;;;;;;-1.39;100.00;101065.42;106544;1286;74534;-84
2023/02/18 01:55:36;;;;;;;36.80;12.40;;;;;;;-1.38;100.00;101055.80;106713;1286;58176;-84
2023/02/18 01:58:02;;;;;;;36.30;12.10;;;;;;;-1.40;100.00;101045.98;106320;1286;61836;-84
2023/02/18 02:00:27;;;;;;;34.70;12.20;;;;;;;-1.42;100.00;101033.64;106702;1285;58257;-84
2023/02/18 02:02:53;;;;;;;41.90;13.10;;;;;;;-1.44;100.00;101030.41;106551;1286;58397;-84
2023/02/18 02:05:20;;;;;;;33.70;12.50;;;;;;;-1.48;100.00;101022.83;106744;1286;58797;-84
2023/02/18 02:07:50;;;;;;;35.90;11.90;;;;;;;-1.47;100.00;101024.71;106447;1285;58448;-84
2023/02/18 02:10:16;;;;;;;36.20;11.80;;;;;;;-1.47;100.00;101027.22;106711;1286;63142;-82
2023/02/18 02:13:04;;;;;;;34.90;12.60;;;;;;;-1.46;100.00;101023.59;106553;1286;60167;-82
2023/02/18 02:15:37;;;;;;;35.40;11.20;;;;;;;-1.47;100.00;101018.70;106680;1286;74912;-81
2023/02/18 02:18:35;;;;;;;33.40;12.90;;;;;;;-1.45;100.00;101020.77;106732;1286;74361;-82
2023/02/18 02:21:45;;;;;;;36.50;12.90;;;;;;;-1.43;100.00;101025.98;106667;1286;72559;-82
2023/02/18 02:24:46;;;;;;;35.40;12.10;;;;;;;-1.36;100.00;101025.09;106020;1294;59588;-82
2023/02/18 02:27:20;;;;;;;39.10;12.80;;;;;;;-1.39;100.00;101009.48;106027;1294;60031;-81
2023/02/18 02:30:02;;;;;;;38.20;13.70;;;;;;;-1.39;100.00;101004.04;106014;1294;74753;-82
2023/02/18 02:32:36;;;;;;;38.80;14.30;;;;;;;-1.38;100.00;101002.15;106014;1294;73138;-82
2023/02/18 02:35:14;;;;;;;41.20;14.00;;;;;;;-1.36;100.00;100997.39;106015;1293;73475;-82
2023/02/18 02:37:54;;;;;;;40.50;14.60;;;;;;;-1.38;100.00;100997.75;106030;1294;62804;-82
2023/02/18 02:40:31;;;;;;;42.80;14.70;;;;;;;-1.38;100.00;100992.50;105905;1294;61479;-82
2023/02/18 02:43:39;;;;;;;39.00;13.00;;;;;;;-1.36;100.00;100987.04;106024;1294;74607;-82
2023/02/18 02:46:35;;;;;;;38.70;14.10;;;;;;;-1.34;100.00;100977.45;105999;1294;74350;-82
2023/02/18 02:49:19;;;;;;;40.70;14.40;;;;;;;-1.38;100.00;100978.59;105934;1294;72507;-82
2023/02/18 02:51:57;;;;;;;39.30;14.40;;;;;;;-1.36;100.00;100979.77;106010;1294;62610;-82
2023/02/18 02:54:25;;;;;;;38.60;14.60;;;;;;;-1.36;100.00;100974.28;105996;1294;61203;-82
2023/02/18 02:57:26;;;;;;;44.30;14.70;;;;;;;-1.36;100.00;100969.02;105992;1294;74531;-82
2023/02/18 03:00:04;;;;;;;44.10;15.30;;;;;;;-1.35;100.00;100967.21;106329;1285;74470;-82
2023/02/18 03:02:57;;;;;;;44.30;15.90;;;;;;;-1.36;100.00;100966.38;106551;1286;73326;-82
2023/02/18 03:05:49;;;;;;;47.90;16.20;;;;;;;-1.32;100.00;100968.21;106729;1286;61928;-85
2023/02/18 03:08:30;;;;;;;45.90;16.00;;;;;;;-1.31;100.00;100965.80;106726;1285;60987;-84
2023/02/18 03:11:09;;;;;;;48.10;16.90;;;;;;;-1.28;100.00;100961.14;106740;1285;74645;-84
2023/02/18 03:14:05;;;;;;;49.10;17.10;;;;;;;-1.27;100.00;100956.06;106236;1290;74427;-85
2023/02/18 03:16:43;;;;;;;54.40;17.40;;;;;;;-1.26;100.00;100948.91;106214;1291;73477;-82
2023/02/18 03:19:18;;;;;;;58.30;18.80;;;;;;;-1.26;100.00;100943.23;106220;1290;61628;-82
2023/02/18 03:21:51;;;;;;;55.30;18.10;;;;;;;-1.27;100.00;100946.15;106239;1291;61005;-82
2023/02/18 03:24:22;;;;;;;;;;;;;;;-1.25;100.00;100946.10;106227;1290;74614;-82
2023/02/18 03:26:52;;;;;;;60.00;19.50;;;;;;;-1.24;100.00;100944.74;106251;1291;74099;-82
2023/02/18 03:29:20;;;;;;;58.80;20.70;;;;;;;-1.22;100.00;100940.66;106158;1291;72562;-82
2023/02/18 03:31:51;;;;;;;79.20;26.60;;;;;;;-1.21;100.00;100928.08;105929;1290;61586;-83
2023/02/18 03:34:22;;;;;;;105.60;38.90;;;;;;;-1.21;100.00;100922.74;106237;1291;61057;-82
2023/02/18 03:36:47;;;;;;;82.60;29.00;;;;;;;-1.20;100.00;100924.44;106203;1290;73884;-83
2023/02/18 03:39:16;;;;;;;229.00;79.90;;;;;;;-1.20;100.00;100926.98;106244;1290;58325;-82
2023/02/18 03:41:43;;;;;;;128.90;45.10;;;;;;;-1.17;100.00;100923.70;106209;1290;73624;-82
2023/02/18 03:44:09;;;;;;;93.30;33.20;;;;;;;-1.16;100.00;100924.27;106207;1286;58371;-83
2023/02/18 03:46:37;;;;;;;94.20;32.60;;;;;;;-1.16;100.00;100917.73;106531;1288;58202;-83
2023/02/18 03:49:02;;;;;;;69.70;22.90;;;;;;;-1.14;100.00;100911.91;106765;1286;74954;-83
2023/02/18 03:51:28;;;;;;;68.90;23.90;;;;;;;-1.14;100.00;100907.52;106352;1286;58696;-82
2023/02/18 03:53:53;;;;;;;69.70;23.20;;;;;;;-1.14;100.00;100912.93;106731;1285;58293;-82
2023/02/18 03:56:20;;;;;;;75.40;27.50;;;;;;;-1.13;100.00;100919.77;106298;1286;58357;-82
2023/02/18 03:58:46;;;;;;;79.30;25.50;;;;;;;-1.10;100.00;100916.61;106592;1286;58292;-82
2023/02/18 04:01:11;;;;;;;76.90;25.50;;;;;;;-1.07;100.00;100911.14;106797;1286;58524;-83
2023/02/18 04:03:37;;;;;;;74.70;26.40;;;;;;;-1.05;100.00;100901.30;106384;1286;71408;-82
2023/02/18 04:06:02;;;;;;;76.90;25.70;;;;;;;-1.04;100.00;100902.65;106727;1286;58247;-83
2023/02/18 04:08:28;;;;;;;77.50;27.40;;;;;;;-1.01;100.00;100899.08;106790;1286;58331;-83
2023/02/18 04:10:54;;;;;;;76.40;25.80;;;;;;;-0.97;100.00;100896.57;106552;1286;58544;-83
2023/02/18 04:13:19;;;;;;;75.20;26.20;;;;;;;-0.97;100.00;100897.77;106618;1286;58431;-82
2023/02/18 04:15:47;;;;;;;71.50;26.40;;;;;;;-0.98;100.00;100891.83;106372;1288;61880;-82
2023/02/18 04:18:13;;;;;;;66.70;24.30;;;;;;;-0.98;100.00;100886.94;105969;1289;60057;-82
2023/02/18 04:20:38;;;;;;;63.10;22.10;;;;;;;-0.97;100.00;100887.72;106345;1289;58490;-82
2023/02/18 04:23:04;;;;;;;59.10;21.50;;;;;;;-0.95;100.00;100873.59;106304;1288;58330;-82
2023/02/18 04:25:30;;;;;;;63.60;22.60;;;;;;;-0.96;100.00;100860.96;106313;1289;58685;-83
2023/02/18 04:27:55;;;;;;;74.70;24.90;;;;;;;-0.96;100.00;100851.98;106433;1289;58690;-82
2023/02/18 04:30:22;;;;;;;64.90;23.70;;;;;;;-0.95;100.00;100838.61;106257;1289;58321;-83
2023/02/18 04:32:48;;;;;;;67.00;21.60;;;;;;;-0.94;100.00;100832.69;106396;1288;74304;-83
2023/02/18 04:35:13;;;;;;;67.10;20.50;;;;;;;-0.94;100.00;100822.70;106300;1289;59691;-82
2023/02/18 04:37:39;;;;;;;60.10;20.40;;;;;;;-0.96;100.00;100813.91;106183;1289;58706;-83
2023/02/18 04:40:05;;;;;;;61.50;21.00;;;;;;;-0.93;100.00;100807.41;106450;1288;58260;-82
2023/02/18 04:42:31;;;;;;;64.00;20.60;;;;;;;-0.93;100.00;100807.34;106215;1292;58569;-83
2023/02/18 04:44:56;;;;;;;61.00;21.50;;;;;;;-0.92;100.00;100807.96;106345;1289;58337;-83
2023/02/18 04:47:22;;;;;;;64.00;19.40;;;;;;;-0.92;100.00;100803.37;106641;1285;61710;-83
2023/02/18 04:49:48;;;;;;;56.80;19.20;;;;;;;-0.89;100.00;100796.77;106557;1286;58615;-83
2023/02/18 04:52:13;;;;;;;63.00;20.90;;;;;;;-0.89;100.00;100800.59;106610;1285;58596;-83
2023/02/18 04:54:39;;;;;;;71.40;22.70;;;;;;;-0.86;100.00;100804.10;106328;1286;58566;-83
2023/02/18 04:57:04;;;;;;;68.10;22.80;;;;;;;-0.85;100.00;100810.02;106807;1286;58158;-83
2023/02/18 04:59:30;;;;;;;71.20;23.70;;;;;;;-0.84;100.00;100801.77;106734;1285;60813;-83
2023/02/18 05:01:56;;;;;;;78.50;25.80;;;;;;;-0.85;100.00;100796.27;106733;1286;58570;-83
2023/02/18 05:04:22;;;;;;;77.90;26.50;;;;;;;-0.84;100.00;100786.02;106769;1286;58303;-83
2023/02/18 05:06:47;;;;;;;72.10;23.90;;;;;;;-0.81;100.00;100776.59;106758;1286;58644;-82
2023/02/18 05:09:14;;;;;;;74.50;24.70;;;;;;;-0.80;100.00;100772.89;106421;1286;58632;-83
2023/02/18 05:11:41;;;;;;;72.30;23.70;;;;;;;-0.77;100.00;100774.52;106586;1286;58252;-83
2023/02/18 05:14:06;;;;;;;67.50;21.60;;;;;;;-0.75;100.00;100764.68;106779;1285;58329;-83
2023/02/18 05:16:32;;;;;;;65.60;22.00;;;;;;;-0.75;100.00;100756.55;106760;1286;58370;-83
2023/02/18 05:18:57;;;;;;;69.80;23.20;;;;;;;-0.70;100.00;100750.73;106703;1286;61897;-83
2023/02/18 05:21:23;;;;;;;71.90;22.20;;;;;;;-0.66;100.00;100748.35;106563;1286;58333;-83
2023/02/18 05:23:48;;;;;;;69.50;24.90;;;;;;;-0.66;100.00;100742.98;106774;1286;58253;-83
2023/02/18 05:26:14;;;;;;;73.60;26.10;;;;;;;-0.63;100.00;100747.41;106524;1285;58567;-83
2023/02/18 05:28:39;;;;;;;77.70;22.00;;;;;;;-0.61;100.00;100743.26;106662;1286;168942;-83
2023/02/18 05:31:05;;;;;;;71.20;22.40;;;;;;;-0.61;100.00;100740.48;106747;1286;60821;-83
2023/02/18 05:33:30;;;;;;;70.20;20.90;;;;;;;-0.58;100.00;100733.77;106546;1286;58726;-83
2023/02/18 05:35:56;;;;;;;69.60;22.30;;;;;;;-0.52;100.00;100734.38;106461;1286;58216;-83
2023/02/18 05:38:21;;;;;;;72.40;22.10;;;;;;;-0.46;100.00;100730.52;106726;1286;58275;-82
2023/02/18 05:40:47;;;;;;;69.00;20.80;;;;;;;-0.41;100.00;100728.23;106496;1286;58423;-83
2023/02/18 05:43:13;;;;;;;63.30;22.10;;;;;;;-0.37;100.00;100723.04;106523;1286;74576;-83
2023/02/18 05:45:38;;;;;;;61.50;21.00;;;;;;;-0.33;100.00;100721.59;106558;1285;58332;-82
2023/02/18 05:48:04;;;;;;;57.70;19.10;;;;;;;-0.29;100.00;100714.63;106726;1288;58291;-83
2023/02/18 05:50:30;;;;;;;60.80;20.40;;;;;;;-0.27;100.00;100717.91;106743;1286;58450;-83
2023/02/18 05:52:55;;;;;;;67.90;20.40;;;;;;;-0.26;100.00;100716.30;106381;1286;59105;-83
2023/02/18 05:55:21;;;;;;;70.80;20.80;;;;;;;-0.25;100.00;100715.12;106539;1285;58501;-83
2023/02/18 05:57:46;;;;;;;63.00;20.80;;;;;;;-0.20;100.00;100712.29;106524;1286;58328;-83
2023/02/18 06:00:12;;;;;;;65.00;20.80;;;;;;;-0.16;100.00;100707.23;106576;1286;58231;-83
2023/02/18 06:02:38;;;;;;;67.20;20.10;;;;;;;-0.13;100.00;100698.11;106747;1285;58290;-83
2023/02/18 06:05:04;;;;;;;70.90;21.50;;;;;;;-0.07;100.00;100693.23;106550;1286;58343;-83
2023/02/18 06:07:30;;;;;;;71.60;20.10;;;;;;;-0.02;100.00;100696.84;106135;1291;58499;-83
2023/02/18 06:09:56;;;;;;;57.20;18.20;;;;;;;-0.04;100.00;100691.15;106186;1291;59229;-82
2023/02/18 06:12:21;;;;;;;59.30;19.90;;;;;;;-0.03;100.00;100686.88;106278;1291;58159;-83
2023/02/18 06:14:47;;;;;;;60.60;19.30;;;;;;;0.01;100.00;100684.65;106225;1291;58345;-82
2023/02/18 06:17:13;;;;;;;63.90;20.50;;;;;;;0.03;100.00;100681.73;106051;1291;59059;-83
2023/02/18 06:19:38;;;;;;;62.80;19.30;;;;;;;0.04;100.00;100675.23;106077;1291;58714;-83
2023/02/18 06:22:05;;;;;;;62.60;19.70;;;;;;;0.06;100.00;100674.47;105931;1292;58268;-83
2023/02/18 06:24:30;;;;;;;61.80;20.10;;;;;;;0.08;100.00;100668.41;106116;1290;58314;-84
2023/02/18 06:26:56;;;;;;;58.50;18.30;;;;;;;0.12;100.00;100661.02;106264;1291;58373;-83
2023/02/18 06:29:22;;;;;;;54.70;18.60;;;;;;;0.15;100.00;100653.88;106222;1291;73244;-83
2023/02/18 06:31:47;;;;;;;50.90;17.20;;;;;;;0.18;100.00;100649.14;106236;1290;58457;-83
2023/02/18 06:34:13;;;;;;;54.50;19.60;;;;;;;0.21;100.00;100643.59;106052;1291;58222;-83
2023/02/18 06:36:39;;;;;;;54.50;17.10;;;;;;;0.22;100.00;100641.15;106272;1290;58282;-83
2023/02/18 06:39:05;;;;;;;50.70;17.70;;;;;;;0.24;100.00;100636.38;106097;1286;58543;-82
2023/02/18 06:41:30;;;;;;;49.10;16.50;;;;;;;0.27;100.00;100628.23;106774;1286;58273;-84
2023/02/18 06:43:56;;;;;;;48.20;16.40;;;;;;;0.30;100.00;100621.71;106459;1286;60084;-83
2023/02/18 06:46:21;;;;;;;48.40;16.50;;;;;;;0.35;100.00;100624.70;106796;1286;58323;-83
2023/02/18 06:48:47;;;;;;;52.00;18.40;;;;;;;0.36;100.00;100621.32;106361;1286;58633;-83
2023/02/18 06:51:14;;;;;;;58.20;16.60;;;;;;;0.38;100.00;100612.25;106443;1286;58705;-84
2023/02/18 06:53:41;;;;;;;47.00;15.90;;;;;;;0.41;100.00;100613.20;106248;1286;59134;-83
2023/02/18 06:56:07;;;;;;;47.00;15.70;;;;;;;0.43;100.00;100605.15;106583;1286;58983;-84
2023/02/18 06:58:32;;;;;;;44.10;15.40;;;;;;;0.48;100.00;100600.89;106567;1286;58323;-84
2023/02/18 07:00:58;;;;;;;53.60;17.30;;;;;;;0.51;100.00;100595.25;106779;1286;59115;-84
2023/02/18 07:03:24;;;;;;;43.80;15.40;;;;;;;0.53;100.00;100595.27;106497;1288;60999;-84
2023/02/18 07:05:49;;;;;;;48.60;15.70;;;;;;;0.58;100.00;100595.57;106234;1291;59066;-85
2023/02/18 07:08:15;;;;;;;44.30;15.40;;;;;;;0.60;100.00;100594.36;106178;1291;58695;-84
2023/02/18 07:10:41;;;;;;;48.90;15.30;;;;;;;0.62;100.00;100597.98;106232;1291;58371;-85
2023/02/18 07:13:06;;;;;;;43.40;14.40;;;;;;;0.65;100.00;100589.71;106211;1291;58898;-85
2023/02/18 07:15:32;;;;;;;42.90;13.70;;;;;;;0.69;100.00;100581.61;106220;1290;58319;-85
2023/02/18 07:17:57;;;;;;;41.10;13.70;;;;;;;0.74;100.00;100573.45;106282;1291;58339;-85
2023/02/18 07:20:24;;;;;;;39.30;12.80;;;;;;;0.78;100.00;100560.85;106133;1291;58382;-85
2023/02/18 07:22:50;;;;;;;35.70;11.80;;;;;;;0.85;100.00;100549.14;106100;1291;58738;-86
2023/02/18 07:25:16;;;;;;;35.10;11.80;;;;;;;0.89;100.00;100543.85;105917;1293;58433;-85
2023/02/18 07:27:42;;;;;;;40.70;12.90;;;;;;;0.94;100.00;100537.71;106033;1293;58330;-85
2023/02/18 07:30:08;;;;;;;34.30;12.50;;;;;;;0.99;100.00;100527.77;106015;1294;58307;-85
2023/02/18 07:32:34;;;;;;;36.00;12.30;;;;;;;1.02;100.00;100510.30;106002;1294;58540;-85
2023/02/18 07:35:00;;;;;;;32.70;11.20;;;;;;;1.08;100.00;100496.73;106052;1293;58603;-85
2023/02/18 07:37:26;;;;;;;31.70;11.30;;;;;;;1.16;100.00;100483.73;106105;1290;58333;-84
2023/02/18 07:39:51;;;;;;;33.20;10.90;;;;;;;1.18;100.00;100469.81;106348;1289;73306;-83
2023/02/18 07:42:17;;;;;;;29.50;10.80;;;;;;;1.23;100.00;100468.02;106343;1291;58360;-84
2023/02/18 07:44:42;;;;;;;24.20;9.30;;;;;;;1.33;100.00;100463.48;106331;1291;58734;-84
2023/02/18 07:47:11;;;;;;;26.30;9.90;;;;;;;1.43;100.00;100457.67;106046;1291;58278;-83
2023/02/18 07:49:37;;;;;;;34.50;12.20;;;;;;;1.57;100.00;100460.30;106121;1290;58486;-84
2023/02/18 07:52:02;;;;;;;24.40;9.70;;;;;;;1.57;100.00;100450.29;106222;1291;58521;-85
2023/02/18 07:54:28;;;;;;;27.50;8.80;;;;;;;1.63;100.00;100443.11;106154;1289;58420;-85
2023/02/18 07:56:53;;;;;;;29.60;10.00;;;;;;;1.67;100.00;100437.02;106315;1286;58400;-84
2023/02/18 07:59:19;;;;;;;24.10;8.90;;;;;;;1.70;100.00;100429.01;106597;1286;58242;-85
2023/02/18 08:01:45;;;;;;;23.60;8.40;;;;;;;1.73;100.00;100420.66;106364;1286;58916;-85
2023/02/18 08:04:11;;;;;;;24.90;8.20;;;;;;;1.70;100.00;100419.23;106457;1286;58246;-85
2023/02/18 08:06:41;;;;;;;21.60;8.00;;;;;;;1.73;100.00;100411.59;106522;1286;58325;-86
2023/02/18 08:09:07;;;;;;;22.20;8.60;;;;;;;1.77;100.00;100404.67;106511;1286;60022;-85
2023/02/18 08:11:34;;;;;;;19.10;7.70;;;;;;;1.73;100.00;100399.54;106286;1286;58280;-85
2023/02/18 08:14:00;;;;;;;20.20;7.70;;;;;;;1.73;100.00;100393.85;106524;1285;58254;-85
2023/02/18 08:16:26;;;;;;;20.00;7.40;;;;;;;1.74;100.00;100389.36;106546;1286;58419;-86
2023/02/18 08:18:52;;;;;;;18.20;7.30;;;;;;;1.74;100.00;100386.09;106433;1286;58656;-84
2023/02/18 08:21:19;;;;;;;20.50;7.20;;;;;;;1.73;100.00;100377.23;106527;1286;58184;-83
2023/02/18 08:23:45;;;;;;;20.70;7.40;;;;;;;1.75;100.00;100368.14;106545;1286;58404;-84
2023/02/18 08:26:12;;;;;;;20.70;8.20;;;;;;;1.79;100.00;100361.81;106455;1286;58603;-84
2023/02/18 08:28:37;;;;;;;21.20;7.70;;;;;;;1.81;100.00;100354.85;106762;1285;58490;-84
2023/02/18 08:31:03;;;;;;;18.60;7.50;;;;;;;1.85;100.00;100349.54;106552;1286;58998;-83
2023/02/18 08:33:29;;;;;;;19.80;8.00;;;;;;;1.94;100.00;100342.52;106444;1286;58312;-83
2023/02/18 08:35:55;;;;;;;23.20;7.90;;;;;;;1.97;100.00;100335.11;106611;1285;58308;-83
2023/02/18 08:38:22;;;;;;;21.70;8.70;;;;;;;2.01;100.00;100332.98;106219;1291;74585;-84
2023/02/18 08:40:48;;;;;;;32.90;11.00;;;;;;;2.01;100.00;100329.33;106122;1291;72720;-83
2023/02/18 08:43:16;;;;;;;24.20;9.00;;;;;;;2.04;100.00;100320.90;106214;1291;58333;-82
2023/02/18 08:45:43;;;;;;;27.00;9.30;;;;;;;2.12;100.00;100313.25;106139;1291;59224;-85
2023/02/18 08:48:12;;;;;;;29.90;10.00;;;;;;;2.19;100.00;100307.22;106161;1291;75004;-82
2023/02/18 08:50:37;;;;;;;29.30;10.90;;;;;;;2.22;100.00;100302.02;106234;1291;73569;-83
2023/02/18 08:53:03;;;;;;;28.50;9.80;;;;;;;2.21;100.00;100298.89;105996;1290;58269;-83
2023/02/18 08:55:30;;;;;;;26.20;10.30;;;;;;;2.21;100.00;100297.10;106261;1291;58634;-83
2023/02/18 08:57:58;;;;;;;30.80;11.00;;;;;;;2.23;100.00;100286.98;105921;1294;58615;-83
2023/02/18 09:00:24;;;;;;;28.70;10.50;;;;;;;2.21;100.00;100280.70;105817;1294;72874;-84
2023/02/18 09:02:50;;;;;;;35.20;11.30;;;;;;;2.23;100.00;100263.39;105877;1294;58860;-83
2023/02/18 09:05:15;;;;;;;28.50;11.00;;;;;;;2.23;100.00;100254.84;106011;1293;59179;-83
2023/02/18 09:07:41;;;;;;;32.80;11.90;;;;;;;2.24;100.00;100241.55;105873;1294;58301;-83
2023/02/18 09:10:10;;;;;;;32.30;10.90;;;;;;;2.25;100.00;100239.63;106014;1294;58357;-83
2023/02/18 09:12:36;;;;;;;31.20;12.10;;;;;;;2.29;100.00;100233.88;106268;1291;58740;-83
2023/02/18 09:15:03;;;;;;;30.30;10.80;;;;;;;2.35;100.00;100228.23;106263;1291;58421;-84
2023/02/18 09:17:30;;;;;;;33.70;11.60;;;;;;;2.42;100.00;100219.84;106229;1290;58392;-85
2023/02/18 09:19:55;;;;;;;55.10;20.60;;;;;;;2.49;100.00;100219.95;106246;1290;58309;-85
2023/02/18 09:22:21;;;;;;;76.80;30.40;;;;;;;2.47;100.00;100206.34;106153;1291;58280;-86
2023/02/18 09:24:47;;;;;;;107.90;40.90;;;;;;;2.45;100.00;100196.86;106191;1290;58405;-85
2023/02/18 09:27:12;;;;;;;174.90;74.30;;;;;;;2.43;100.00;100189.35;106189;1291;58321;-86
2023/02/18 09:29:39;;;;;;;71.50;28.10;;;;;;;2.38;100.00;100178.02;106538;1291;58249;-87
2023/02/18 09:32:06;;;;;;;49.10;17.20;;;;;;;2.40;100.00;100166.19;106441;1287;59968;-88
2023/02/18 09:34:33;;;;;;;46.80;17.60;;;;;;;2.48;100.00;100156.18;106348;1288;74952;-88
2023/02/18 09:36:59;;;;;;;44.40;16.60;;;;;;;2.54;100.00;100145.33;106447;1288;74485;-88
2023/02/18 09:39:25;;;;;;;43.00;16.10;;;;;;;2.52;100.00;100140.44;106388;1286;58382;-91
2023/02/18 09:41:54;;;;;;;49.00;17.00;;;;;;;2.57;100.00;100131.02;106375;1286;58551;-90
2023/02/18 09:44:33;;;;;;;49.90;17.80;;;;;;;2.57;100.00;100124.47;106309;1286;61124;-90
2023/02/18 09:47:01;;;;;;;45.80;17.00;;;;;;;2.58;100.00;100115.05;106682;1288;74676;-89
2023/02/18 09:49:32;;;;;;;46.50;17.00;;;;;;;2.60;100.00;100109.59;106844;1286;72687;-92
2023/02/18 09:52:06;;;;;;;46.10;16.30;;;;;;;2.58;100.00;100108.09;106494;1287;72665;-91
2023/02/18 09:58:42;;;;;;;50.30;17.00;;;;;;;2.50;100.00;100083.16;105565;1292;602382;-94
2023/02/18 10:04:22;;;;;;;45.50;16.10;;;;;;;2.44;100.00;100061.38;104993;1295;60849;-90
